Time;durP1;ratioP1;P1;durP2;ratioP2;P2;SDS_P1;SDS_P2;PMS_P1;PMS_P2;Temp;Humidity;BMP_temperature;BMP_pressure;BME280_temperature;BME280_humidity;BME280_pressure;Samples;Min_cycle;Max_cycle;Signal;HPM_P1;HPM_P2
2023/01/16 00:01:45;;;;;;;;;;;2.90;99.90;;;;;;5095455;28;19993;-70
2023/01/16 00:04:11;;;;;;;;;;;2.90;99.90;;;;;;5095530;28;19911;-70
2023/01/16 00:06:37;;;;;;;;;;;2.90;99.90;;;;;;5095254;28;20344;-68
2023/01/16 00:09:03;;;;;;;;;;;2.90;99.90;;;;;;5093799;28;19919;-67
2023/01/16 00:11:29;;;;;;;;;;;2.90;99.90;;;;;;5095123;28;19948;-68
2023/01/16 00:13:55;;;;;;;;;;;2.90;99.90;;;;;;5093890;28;20406;-67
2023/01/16 00:16:21;;;;;;;;;;;2.80;99.90;;;;;;5094407;28;19920;-69
2023/01/16 00:18:47;;;;;;;;;;;2.70;99.90;;;;;;5093676;28;20025;-71
2023/01/16 00:21:12;;;;;;;;;;;2.60;99.90;;;;;;5095979;28;19920;-68
2023/01/16 00:23:38;;;;;;;;;;;2.80;99.90;;;;;;5095147;28;19934;-67
2023/01/16 00:26:04;;;;;;;;;;;2.90;99.90;;;;;;5094738;28;19912;-70
2023/01/16 00:28:32;;;;;;;;;;;2.80;99.90;;;;;;5096254;28;19908;-67
2023/01/16 00:30:57;;;;;;;;;;;2.70;99.90;;;;;;5096356;28;20325;-70
2023/01/16 00:33:23;;;;;;;;;;;2.70;99.90;;;;;;5095350;28;19916;-67
2023/01/16 00:35:49;;;;;;;;;;;2.70;99.90;;;;;;5096112;28;19912;-70
2023/01/16 00:38:14;;;;;;;;;;;2.70;99.90;;;;;;5096170;28;19912;-70
2023/01/16 00:40:40;;;;;;;;;;;2.70;99.90;;;;;;5096426;28;19927;-67
2023/01/16 00:43:05;;;;;;;;;;;2.70;99.90;;;;;;5095777;28;19912;-70
2023/01/16 00:45:31;;;;;;;;;;;2.70;99.90;;;;;;5095863;28;19920;-67
2023/01/16 00:47:58;;;;;;;;;;;2.80;99.90;;;;;;5096121;28;20274;-70
2023/01/16 00:50:24;;;;;;;;;;;2.70;99.90;;;;;;5096129;28;20283;-70
2023/01/16 00:52:49;;;;;;;;;;;2.70;99.90;;;;;;5096625;28;19912;-68
2023/01/16 00:55:15;;;;;;;;;;;2.70;99.90;;;;;;5096412;28;20408;-70
2023/01/16 00:57:40;;;;;;;;;;;2.80;99.90;;;;;;5095513;28;19919;-67
2023/01/16 01:00:06;;;;;;;;;;;2.80;99.90;;;;;;5096145;28;19913;-70
2023/01/16 01:02:32;;;;;;;;;;;2.80;99.90;;;;;;5095894;28;19924;-67
2023/01/16 01:04:58;;;;;;;;;;;2.80;99.90;;;;;;5094394;28;20386;-70
2023/01/16 01:07:23;;;;;;;;;;;2.70;99.90;;;;;;5096137;28;19919;-68
2023/01/16 01:09:49;;;;;;;;;;;2.60;99.90;;;;;;5095888;28;20371;-69
2023/01/16 01:12:14;;;;;;;;;;;2.70;99.90;;;;;;5094423;28;19912;-70
2023/01/16 01:14:40;;;;;;;;;;;2.80;99.90;;;;;;5095847;28;19965;-67
2023/01/16 01:17:06;;;;;;;;;;;2.70;99.90;;;;;;5095192;28;20003;-70
2023/01/16 01:19:31;;;;;;;;;;;2.80;99.90;;;;;;5095703;28;20342;-67
2023/01/16 01:21:57;;;;;;;;;;;2.90;99.90;;;;;;5094279;28;19924;-70
2023/01/16 01:24:22;;;;;;;;;;;2.90;99.90;;;;;;5094466;28;19916;-69
2023/01/16 01:26:48;;;;;;;;;;;3.00;99.90;;;;;;5095195;28;19912;-71
2023/01/16 01:29:13;;;;;;;;;;;3.00;99.90;;;;;;5095034;28;19923;-69
2023/01/16 01:31:39;;;;;;;;;;;2.90;99.90;;;;;;5093338;28;19912;-67
2023/01/16 01:34:05;;;;;;;;;;;2.80;99.90;;;;;;5093724;28;20410;-70
2023/01/16 01:36:30;;;;;;;;;;;2.80;99.90;;;;;;5094401;28;19912;-69
2023/01/16 01:38:56;;;;;;;;;;;2.70;99.90;;;;;;5095478;28;19916;-70
2023/01/16 01:41:21;;;;;;;;;;;2.70;99.90;;;;;;5094888;28;20008;-69
2023/01/16 01:43:49;;;;;;;;;;;2.80;99.90;;;;;;5094808;28;19973;-70
2023/01/16 01:46:20;;;;;;;;;;;2.80;99.90;;;;;;5095081;28;19919;-70
2023/01/16 01:48:46;;;;;;;;;;;2.80;99.90;;;;;;5094889;28;19939;-70
2023/01/16 01:51:25;;;;;;;;;;;2.80;99.90;;;;;;5094739;28;19913;-69
2023/01/16 01:53:53;;;;;;;;;;;2.80;99.90;;;;;;5094665;28;20249;-67
2023/01/16 01:56:34;;;;;;;;;;;2.70;99.90;;;;;;5091258;28;20367;-70
2023/01/16 01:59:02;;;;;;;;;;;2.50;99.90;;;;;;5089930;28;19916;-68
2023/01/16 02:01:29;;;;;;;;;;;2.60;99.90;;;;;;5091901;28;19920;-69
2023/01/16 02:03:59;;;;;;;;;;;2.70;99.90;;;;;;5094797;28;19919;-70
2023/01/16 02:06:28;;;;;;;;;;;2.70;99.90;;;;;;5094139;28;19955;-69
2023/01/16 02:08:54;;;;;;;;;;;2.90;99.90;;;;;;5094689;28;20419;-68
2023/01/16 02:11:35;;;;;;;;;;;2.90;99.90;;;;;;5094246;28;19931;-70
2023/01/16 02:14:05;;;;;;;;;;;3.00;99.90;;;;;;5094547;28;19955;-70
2023/01/16 02:19:34;;;;;;;;;;;3.00;99.90;;;;;;5094054;28;19923;-70
2023/01/16 02:22:18;;;;;;;;;;;2.70;99.90;;;;;;5094472;28;19920;-67
2023/01/16 02:24:53;;;;;;;;;;;2.70;99.90;;;;;;5092640;28;19998;-68
2023/01/16 02:27:34;;;;;;;;;;;2.70;99.90;;;;;;5091075;28;19969;-70
2023/01/16 02:30:06;;;;;;;;;;;2.60;99.90;;;;;;5094152;28;19919;-67
2023/01/16 02:32:40;;;;;;;;;;;2.60;99.90;;;;;;5093917;28;19950;-68
2023/01/16 02:35:25;;;;;;;;;;;2.60;99.90;;;;;;5094270;28;19919;-68
2023/01/16 02:37:50;;;;;;;;;;;2.60;99.90;;;;;;5084414;28;19943;-68
2023/01/16 02:40:23;;;;;;;;;;;2.90;99.90;;;;;;5094350;28;20359;-70
2023/01/16 02:42:57;;;;;;;;;;;3.00;99.90;;;;;;5093904;28;19919;-71
2023/01/16 02:45:28;;;;;;;;;;;3.20;99.90;;;;;;5091085;28;19970;-67
2023/01/16 02:47:57;;;;;;;;;;;3.00;99.90;;;;;;5093794;28;19918;-69
2023/01/16 02:50:26;;;;;;;;;;;3.20;99.90;;;;;;5094033;28;19916;-68
2023/01/16 02:53:10;;;;;;;;;;;3.30;99.90;;;;;;5093828;28;19913;-68
2023/01/16 02:55:46;;;;;;;;;;;3.50;99.90;;;;;;5091186;28;19912;-68
2023/01/16 02:58:12;;;;;;;;;;;3.50;99.90;;;;;;5093020;28;20252;-67
2023/01/16 03:00:48;;;;;;;;;;;3.30;99.90;;;;;;5093823;28;19927;-69
2023/01/16 03:03:36;;;;;;;;;;;3.40;99.90;;;;;;5094506;28;19912;-68
2023/01/16 03:06:14;;;;;;;;;;;3.30;99.90;;;;;;5077911;28;19965;-67
2023/01/16 03:09:14;;;;;;;;;;;3.30;99.90;;;;;;5092732;28;20399;-68
2023/01/16 03:11:44;;;;;;;;;;;3.40;99.90;;;;;;5052247;28;19944;-68
2023/01/16 03:14:14;;;;;;;;;;;3.50;99.90;;;;;;5076600;28;19919;-68
2023/01/16 03:16:51;;;;;;;;;;;3.70;99.90;;;;;;5092827;28;19912;-68
2023/01/16 03:19:35;;;;;;;;;;;3.80;99.90;;;;;;5092466;28;20360;-68
2023/01/16 03:22:06;;;;;;;;;;;3.90;99.90;;;;;;5096197;28;19920;-68
2023/01/16 03:24:31;;;;;;;;;;;4.10;99.90;;;;;;5097858;28;20317;-67
2023/01/16 03:27:09;;;;;;;;;;;4.00;99.90;;;;;;5097936;28;19916;-67
2023/01/16 03:29:36;;;;;;;;;;;;;;;;;;5097303;28;19919;-68
2023/01/16 03:32:05;;;;;;;;;;;4.20;99.90;;;;;;5097756;28;19913;-68
2023/01/16 03:34:43;;;;;;;;;;;4.00;99.90;;;;;;5097937;28;19912;-67
2023/01/16 03:37:13;;;;;;;;;;;4.20;99.90;;;;;;5097856;28;19912;-68
2023/01/16 03:39:42;;;;;;;;;;;3.90;99.90;;;;;;5096170;28;19969;-67
2023/01/16 03:42:11;;;;;;;;;;;3.60;99.90;;;;;;5097840;28;20022;-69
2023/01/16 03:44:47;;;;;;;;;;;3.40;99.90;;;;;;5097278;28;19923;-69
2023/01/16 03:47:17;;;;;;;;;;;3.30;99.90;;;;;;5097869;28;19912;-68
2023/01/16 03:49:47;;;;;;;;;;;3.50;99.90;;;;;;5096882;28;20011;-67
2023/01/16 03:52:14;;;;;;;;;;;3.50;99.90;;;;;;5097195;28;20345;-67
2023/01/16 03:54:49;;;;;;;;;;;3.50;99.90;;;;;;5096653;28;19912;-69
2023/01/16 03:57:19;;;;;;;;;;;3.70;99.90;;;;;;5096063;28;19912;-68
2023/01/16 03:59:46;;;;;;;;;;;3.80;99.90;;;;;;5096671;28;19948;-68
2023/01/16 04:02:18;;;;;;;;;;;3.90;99.90;;;;;;5095522;28;19920;-68
2023/01/16 04:04:52;;;;;;;;;;;4.10;99.90;;;;;;5096405;28;19916;-68
2023/01/16 04:07:34;;;;;;;;;;;4.10;99.90;;;;;;5096659;28;19962;-68
2023/01/16 04:10:00;;;;;;;;;;;;;;;;;;5096658;28;19912;-68
2023/01/16 04:12:32;;;;;;;;;;;4.40;99.90;;;;;;5096932;28;19915;-68
2023/01/16 04:14:59;;;;;;;;;;;4.50;99.90;;;;;;5096726;28;19946;-69
2023/01/16 04:17:25;;;;;;;;;;;4.40;99.90;;;;;;5096920;28;19924;-69
2023/01/16 04:19:50;;;;;;;;;;;4.40;99.90;;;;;;5096242;28;20071;-68
2023/01/16 04:22:20;;;;;;;;;;;4.40;99.90;;;;;;5096142;28;19921;-67
2023/01/16 04:24:45;;;;;;;;;;;4.50;99.90;;;;;;5095395;28;19927;-69
2023/01/16 04:27:11;;;;;;;;;;;4.50;99.90;;;;;;5097129;28;19912;-68
2023/01/16 04:29:36;;;;;;;;;;;4.50;99.90;;;;;;5096199;28;20304;-70
2023/01/16 04:32:02;;;;;;;;;;;4.40;99.90;;;;;;5096421;28;20038;-68
2023/01/16 04:34:28;;;;;;;;;;;4.40;99.90;;;;;;5095819;28;19912;-68
2023/01/16 04:36:53;;;;;;;;;;;4.30;99.90;;;;;;5096628;28;19939;-68
2023/01/16 04:39:19;;;;;;;;;;;4.20;99.90;;;;;;5094807;28;19912;-69
2023/01/16 04:41:50;;;;;;;;;;;4.20;99.90;;;;;;5095711;28;19920;-69
2023/01/16 04:44:16;;;;;;;;;;;4.20;99.90;;;;;;5096173;28;19938;-69
2023/01/16 04:46:41;;;;;;;;;;;4.10;99.90;;;;;;5096130;28;19913;-68
2023/01/16 04:49:07;;;;;;;;;;;4.10;99.90;;;;;;5094665;28;19952;-69
2023/01/16 04:51:33;;;;;;;;;;;4.00;99.90;;;;;;5115635;27;20007;-68
2023/01/16 04:53:59;;;;;;;;;;;3.90;99.90;;;;;;5096159;28;19912;-68
2023/01/16 04:56:25;;;;;;;;;;;4.50;99.90;;;;;;5096102;28;19966;-68
2023/01/16 04:58:52;;;;;;;;;;;4.40;99.90;;;;;;5094945;28;20367;-68
2023/01/16 05:01:18;;;;;;;;;;;4.60;99.90;;;;;;5095975;28;19920;-69
2023/01/16 05:03:43;;;;;;;;;;;4.70;99.90;;;;;;5096156;28;19998;-68
2023/01/16 05:06:09;;;;;;;;;;;4.60;99.90;;;;;;5094879;28;19912;-69
2023/01/16 05:08:35;;;;;;;;;;;4.70;99.90;;;;;;5095861;28;19912;-69
2023/01/16 05:11:01;;;;;;;;;;;4.70;99.90;;;;;;5095556;28;20368;-67
2023/01/16 05:13:27;;;;;;;;;;;4.50;99.90;;;;;;5095976;28;20347;-68
2023/01/16 05:15:53;;;;;;;;;;;4.30;99.90;;;;;;5095184;28;20701;-68
2023/01/16 05:18:19;;;;;;;;;;;4.30;99.90;;;;;;5094995;28;19928;-69
2023/01/16 05:20:44;;;;;;;;;;;3.90;99.90;;;;;;5095534;28;19924;-68
2023/01/16 05:23:10;;;;;;;;;;;3.70;99.90;;;;;;5094155;28;20367;-68
2023/01/16 05:25:36;;;;;;;;;;;3.30;99.90;;;;;;5095373;28;20317;-69
2023/01/16 05:28:02;;;;;;;;;;;3.20;99.90;;;;;;5095186;28;19912;-69
2023/01/16 05:30:28;;;;;;;;;;;3.30;99.90;;;;;;5094205;28;20042;-67
2023/01/16 05:32:53;;;;;;;;;;;3.30;99.90;;;;;;5095486;28;19999;-67
2023/01/16 05:35:22;;;;;;;;;;;3.30;99.90;;;;;;5095203;28;19911;-69
2023/01/16 05:37:47;;;;;;;;;;;3.40;99.90;;;;;;5094585;28;20279;-68
2023/01/16 05:40:13;;;;;;;;;;;3.30;99.90;;;;;;5095535;28;19923;-69
2023/01/16 05:42:41;;;;;;;;;;;3.60;99.90;;;;;;5094736;28;19974;-68
2023/01/16 05:45:07;;;;;;;;;;;3.50;99.90;;;;;;5094456;28;19912;-69
2023/01/16 05:47:32;;;;;;;;;;;3.70;99.90;;;;;;5095036;28;20355;-68
2023/01/16 05:49:58;;;;;;;;;;;3.70;99.90;;;;;;5094862;28;20290;-67
2023/01/16 05:52:25;;;;;;;;;;;3.50;99.90;;;;;;5095010;28;20362;-67
2023/01/16 05:54:51;;;;;;;;;;;;;;;;;;5095107;28;20363;-68
2023/01/16 05:57:17;;;;;;;;;;;4.30;99.90;;;;;;5095454;28;19918;-69
2023/01/16 05:59:45;;;;;;;;;;;4.40;99.90;;;;;;5091833;28;19998;-68
2023/01/16 06:02:11;;;;;;;;;;;4.50;99.90;;;;;;5080811;28;20287;-69
2023/01/16 06:04:37;;;;;;;;;;;4.60;99.90;;;;;;5073185;28;19913;-70
2023/01/16 06:07:02;;;;;;;;;;;4.70;99.90;;;;;;5074862;28;20156;-68
2023/01/16 06:09:28;;;;;;;;;;;4.80;99.90;;;;;;5084738;28;19919;-67
2023/01/16 06:11:53;;;;;;;;;;;5.00;99.90;;;;;;5094531;28;19912;-69
2023/01/16 06:14:19;;;;;;;;;;;4.90;99.90;;;;;;5093714;28;19916;-69
2023/01/16 06:16:45;;;;;;;;;;;4.80;99.90;;;;;;5093397;28;19916;-69
2023/01/16 06:19:11;;;;;;;;;;;4.80;99.90;;;;;;5084943;28;19923;-69
2023/01/16 06:21:41;;;;;;;;;;;4.80;99.90;;;;;;5092935;28;20566;-67
2023/01/16 06:24:08;;;;;;;;;;;4.80;99.90;;;;;;5075459;28;19912;-67
2023/01/16 06:26:34;;;;;;;;;;;4.80;99.90;;;;;;5090877;28;19912;-68
2023/01/16 06:29:00;;;;;;;;;;;4.80;99.90;;;;;;5088064;28;19913;-69
2023/01/16 06:31:25;;;;;;;;;;;4.70;99.90;;;;;;5074011;28;20007;-68
2023/01/16 06:33:51;;;;;;;;;;;4.80;99.90;;;;;;5078955;28;19912;-68
2023/01/16 06:36:16;;;;;;;;;;;4.80;99.90;;;;;;5094555;28;20274;-70
2023/01/16 06:38:45;;;;;;;;;;;4.80;99.90;;;;;;5072857;28;19954;-70
2023/01/16 06:41:11;;;;;;;;;;;4.90;99.90;;;;;;5074029;28;19920;-68
2023/01/16 06:43:36;;;;;;;;;;;4.90;99.90;;;;;;5074230;28;19913;-70
2023/01/16 06:46:02;;;;;;;;;;;4.90;99.90;;;;;;5074564;28;20249;-70
2023/01/16 06:48:28;;;;;;;;;;;4.90;99.90;;;;;;5075475;28;19916;-70
2023/01/16 06:50:53;;;;;;;;;;;4.90;99.90;;;;;;5094456;28;19912;-70
2023/01/16 06:53:19;;;;;;;;;;;4.80;99.90;;;;;;5094374;28;20352;-70
2023/01/16 06:55:45;;;;;;;;;;;4.90;99.90;;;;;;5093617;28;19912;-70
2023/01/16 06:58:11;;;;;;;;;;;4.80;99.90;;;;;;5094208;28;19954;-67
2023/01/16 07:00:36;;;;;;;;;;;4.90;99.90;;;;;;5075216;28;20366;-69
2023/01/16 07:03:02;;;;;;;;;;;4.80;99.90;;;;;;5073991;28;19999;-68
2023/01/16 07:05:29;;;;;;;;;;;4.80;99.90;;;;;;5074281;28;19913;-70
2023/01/16 07:07:55;;;;;;;;;;;4.90;99.90;;;;;;5074139;28;19912;-69
2023/01/16 07:10:20;;;;;;;;;;;4.90;99.90;;;;;;5090221;28;19912;-68
2023/01/16 07:12:47;;;;;;;;;;;4.90;99.90;;;;;;5094217;28;19912;-70
2023/01/16 07:23:29;;;;;;;;;;;5.00;99.90;;;;;;5091439;28;19919;-70
2023/01/16 07:25:56;;;;;;;;;;;5.00;99.90;;;;;;5091680;28;19913;-69
2023/01/16 07:28:22;;;;;;;;;;;4.90;99.90;;;;;;5092237;28;19919;-69
2023/01/16 07:30:48;;;;;;;;;;;5.00;99.90;;;;;;5092556;28;19916;-70
2023/01/16 07:33:14;;;;;;;;;;;5.00;99.90;;;;;;5091420;28;19912;-70
2023/01/16 07:35:39;;;;;;;;;;;5.10;99.90;;;;;;5091669;28;20381;-70
2023/01/16 07:38:05;;;;;;;;;;;5.00;99.90;;;;;;5092830;28;19970;-69
2023/01/16 07:40:31;;;;;;;;;;;5.00;99.90;;;;;;5089132;28;20380;-70
2023/01/16 07:42:56;;;;;;;;;;;5.00;99.90;;;;;;5091199;28;19916;-68
2023/01/16 07:45:22;;;;;;;;;;;5.00;99.90;;;;;;5092986;28;19912;-68
2023/01/16 07:47:47;;;;;;;;;;;5.00;99.90;;;;;;5082003;28;19960;-69
2023/01/16 07:50:13;;;;;;;;;;;4.90;99.90;;;;;;5080490;28;19920;-70
2023/01/16 07:52:39;;;;;;;;;;;4.80;99.90;;;;;;5092113;28;19951;-69
2023/01/16 07:55:05;;;;;;;;;;;4.70;99.90;;;;;;5091725;28;19912;-69
2023/01/16 07:57:30;;;;;;;;;;;4.60;99.90;;;;;;5091521;28;19955;-70
2023/01/16 07:59:56;;;;;;;;;;;4.50;99.90;;;;;;5091349;28;19923;-69
2023/01/16 08:02:22;;;;;;;;;;;4.40;99.90;;;;;;5091279;28;19921;-67
2023/01/16 08:04:47;;;;;;;;;;;4.40;99.90;;;;;;5090362;28;20386;-68
2023/01/16 08:07:14;;;;;;;;;;;4.30;99.90;;;;;;5092609;28;19916;-68
2023/01/16 08:09:39;;;;;;;;;;;4.30;99.90;;;;;;5095766;28;20367;-70
2023/01/16 08:12:05;;;;;;;;;;;4.30;99.90;;;;;;5096168;28;19918;-70
2023/01/16 08:14:31;;;;;;;;;;;4.30;99.90;;;;;;5093888;28;19912;-68
2023/01/16 08:16:56;;;;;;;;;;;4.30;99.90;;;;;;5094904;28;19963;-68
2023/01/16 08:19:22;;;;;;;;;;;4.30;99.90;;;;;;5094211;28;19916;-70
2023/01/16 08:21:48;;;;;;;;;;;4.30;99.90;;;;;;5095992;28;19924;-70
2023/01/16 08:24:14;;;;;;;;;;;4.20;99.90;;;;;;5093565;28;19947;-67
2023/01/16 08:26:40;;;;;;;;;;;4.30;99.90;;;;;;5095234;28;19969;-69
2023/01/16 08:29:06;;;;;;;;;;;4.30;99.90;;;;;;5094241;28;19915;-70
2023/01/16 08:31:31;;;;;;;;;;;4.30;99.90;;;;;;5094636;28;20319;-70
2023/01/16 08:33:57;;;;;;;;;;;4.30;99.90;;;;;;5096174;28;20007;-68
2023/01/16 08:36:23;;;;;;;;;;;4.40;99.90;;;;;;5094635;28;19920;-69
2023/01/16 08:38:48;;;;;;;;;;;4.40;99.90;;;;;;5094634;28;19948;-70
2023/01/16 08:52:34;;;;;;;;;;;5.20;99.90;;;;;;5071650;28;20293;-69
2023/01/16 08:55:00;;;;;;;;;;;;;;;;;;5070998;28;19916;-69
2023/01/16 08:57:27;;;;;;;;;;;5.00;99.90;;;;;;5082167;28;19912;-69
2023/01/16 08:59:53;;;;;;;;;;;5.00;99.90;;;;;;5094254;28;20006;-71
2023/01/16 09:02:19;;;;;;;;;;;5.00;99.90;;;;;;5094150;28;19927;-70
2023/01/16 09:04:44;;;;;;;;;;;5.10;99.90;;;;;;5095476;28;19912;-70
2023/01/16 09:07:10;;;;;;;;;;;5.10;99.90;;;;;;5094677;28;19912;-70
2023/01/16 09:09:36;;;;;;;;;;;5.20;99.90;;;;;;5093708;28;19950;-70
2023/01/16 09:14:45;;;;;;;;;;;5.20;99.90;;;;;;5092229;28;19927;-70
2023/01/16 09:17:11;;;;;;;;;;;5.20;99.90;;;;;;5094044;28;20007;-67
2023/01/16 09:19:37;;;;;;;;;;;5.20;99.90;;;;;;5093165;28;19920;-69
2023/01/16 09:22:05;;;;;;;;;;;5.30;99.90;;;;;;5094714;28;20424;-68
2023/01/16 09:24:31;;;;;;;;;;;5.30;99.90;;;;;;5093617;28;19912;-68
2023/01/16 09:26:57;;;;;;;;;;;5.30;99.90;;;;;;5093975;28;19919;-69
2023/01/16 09:29:22;;;;;;;;;;;5.40;99.90;;;;;;5093772;28;19916;-68
2023/01/16 09:31:48;;;;;;;;;;;;;;;;;;5093300;28;20020;-68
2023/01/16 09:34:14;;;;;;;;;;;5.60;99.90;;;;;;5093202;28;19912;-70
2023/01/16 09:36:39;;;;;;;;;;;5.70;99.90;;;;;;5093396;28;19912;-70
2023/01/16 09:39:05;;;;;;;;;;;6.10;99.90;;;;;;5092836;28;19920;-68
2023/01/16 09:44:20;;;;;;;;;;;6.20;99.90;;;;;;5093465;28;19942;-68
2023/01/16 09:46:47;;;;;;;;;;;6.30;99.90;;;;;;5092732;28;19923;-69
2023/01/16 09:49:12;;;;;;;;;;;6.40;99.90;;;;;;5091848;28;20034;-69
2023/01/16 09:58:34;;;;;;;;;;;6.70;99.90;;;;;;5094702;28;20378;-69
2023/01/16 10:00:01;;;;;;;;;;;6.70;99.90;;;;;;5092733;28;20042;-67
2023/01/16 10:02:29;;;;;;;;;;;6.70;99.90;;;;;;5093148;28;19946;-68
2023/01/16 10:04:55;;;;;;;;;;;6.70;99.90;;;;;;5089857;28;20347;-68
2023/01/16 10:07:39;;;;;;;;;;;6.80;99.90;;;;;;5074062;28;20295;-68
2023/01/16 10:10:04;;;;;;;;;;;6.90;99.90;;;;;;5076402;28;19923;-68
2023/01/16 10:12:33;;;;;;;;;;;6.90;99.90;;;;;;5094950;28;19912;-69
2023/01/16 10:15:08;;;;;;;;;;;6.80;99.90;;;;;;5094435;28;19913;-68
2023/01/16 10:17:33;;;;;;;;;;;6.90;99.90;;;;;;5093108;28;20367;-70
2023/01/16 10:20:17;;;;;;;;;;;6.90;99.90;;;;;;5092564;28;19920;-69
2023/01/16 10:22:58;;;;;;;;;;;6.90;99.90;;;;;;5094243;28;19928;-67
2023/01/16 10:25:35;;;;;;;;;;;7.10;99.90;;;;;;5091411;28;20275;-70
2023/01/16 10:28:13;;;;;;;;;;;7.20;99.90;;;;;;5092643;28;19965;-70
2023/01/16 10:30:44;;;;;;;;;;;7.10;99.90;;;;;;5094430;28;20368;-70
2023/01/16 10:33:36;;;;;;;;;;;7.00;99.90;;;;;;5092906;28;20382;-69
2023/01/16 10:36:02;;;;;;;;;;;7.00;99.90;;;;;;5087263;28;19912;-69
2023/01/16 10:38:43;;;;;;;;;;;7.00;99.90;;;;;;5092747;28;19938;-70
2023/01/16 10:49:53;;;;;;;;;;;6.70;99.90;;;;;;5093967;28;19922;-68
2023/01/16 10:52:19;;;;;;;;;;;6.60;99.90;;;;;;5090622;28;20799;-70
2023/01/16 10:54:44;;;;;;;;;;;6.60;99.90;;;;;;5093348;28;19919;-68
2023/01/16 10:57:17;;;;;;;;;;;6.70;99.90;;;;;;5092198;28;20000;-68
2023/01/16 10:59:44;;;;;;;;;;;6.60;99.90;;;;;;5091908;28;19943;-68
2023/01/16 11:02:17;;;;;;;;;;;6.50;99.90;;;;;;5094218;28;19926;-69
2023/01/16 11:04:42;;;;;;;;;;;6.40;99.90;;;;;;5094467;28;19919;-69
2023/01/16 11:07:18;;;;;;;;;;;6.40;99.90;;;;;;5093160;28;19999;-69
2023/01/16 11:09:45;;;;;;;;;;;6.30;99.90;;;;;;5094254;28;19912;-70
2023/01/16 11:18:28;;;;;;;;;;;6.30;99.90;;;;;;5093969;28;19923;-68
2023/01/16 11:20:54;;;;;;;;;;;6.30;99.90;;;;;;5093762;28;19920;-69
2023/01/16 11:23:20;;;;;;;;;;;6.30;99.90;;;;;;5094089;28;20386;-69
2023/01/16 11:25:46;;;;;;;;;;;6.20;99.90;;;;;;5088017;28;19966;-70
2023/01/16 11:28:16;;;;;;;;;;;6.10;99.90;;;;;;5079706;28;19978;-69
2023/01/16 11:30:44;;;;;;;;;;;6.00;99.90;;;;;;5078149;28;20283;-70
2023/01/16 11:33:17;;;;;;;;;;;5.90;99.90;;;;;;5094126;28;19999;-69
2023/01/16 11:35:47;;;;;;;;;;;5.90;99.90;;;;;;5093950;28;19965;-68
2023/01/16 11:38:14;;;;;;;;;;;5.90;99.90;;;;;;5094042;28;19924;-68
2023/01/16 11:40:44;;;;;;;;;;;5.90;99.90;;;;;;5094035;28;19949;-69
2023/01/16 11:46:12;;;;;;;;;;;5.70;99.90;;;;;;5097661;28;19934;-67
2023/01/16 11:48:42;;;;;;;;;;;5.70;99.90;;;;;;5094918;28;19928;-70
2023/01/16 11:51:15;;;;;;;;;;;5.80;99.90;;;;;;5085077;28;20000;-70
2023/01/16 11:53:42;;;;;;;;;;;5.80;99.90;;;;;;5097863;28;19919;-70
2023/01/16 11:56:11;;;;;;;;;;;5.90;99.90;;;;;;5097423;28;19919;-70
2023/01/16 11:58:47;;;;;;;;;;;5.90;99.90;;;;;;5097563;28;19919;-70
2023/01/16 12:02:15;;;;;;;;;;;6.00;99.90;;;;;;5097511;28;20015;-70
2023/01/16 12:04:20;;;;;;;;;;;6.10;99.90;;;;;;5097368;28;19912;-69
2023/01/16 12:06:45;;;;;;;;;;;6.10;99.90;;;;;;5097526;28;19951;-70
2023/01/16 12:09:24;;;;;;;;;;;6.10;99.90;;;;;;5097451;28;19912;-69
2023/01/16 12:14:17;;;;;;;;;;;6.20;99.90;;;;;;5097261;28;20378;-67
2023/01/16 12:15:17;;;;;;;;;;;6.20;99.90;;;;;;5097310;28;20006;-70
2023/01/16 12:18:02;;;;;;;;;;;6.30;99.90;;;;;;5077248;28;19920;-68
2023/01/16 12:20:28;;;;;;;;;;;6.40;99.90;;;;;;5095789;28;19919;-68
2023/01/16 12:22:53;;;;;;;;;;;6.60;99.90;;;;;;5097146;28;20279;-69
2023/01/16 12:25:19;;;;;;;;;;;6.60;99.90;;;;;;5095812;28;20966;-68
2023/01/16 12:27:56;;;;;;;;;;;6.50;99.90;;;;;;5096949;28;19995;-67
2023/01/16 12:30:38;;;;;;;;;;;6.40;99.90;;;;;;5095554;28;19932;-68
2023/01/16 12:33:15;;;;;;;;;;;6.40;99.90;;;;;;5096853;28;19916;-68
2023/01/16 12:35:46;;;;;;;;;;;6.40;99.90;;;;;;5095650;28;20016;-68
2023/01/16 12:38:17;;;;;;;;;;;6.40;99.90;;;;;;5096914;28;19919;-69
2023/01/16 12:43:58;;;;;;;;;;;6.60;99.90;;;;;;5076377;28;19919;-69
2023/01/16 12:46:41;;;;;;;;;;;6.60;99.90;;;;;;5076615;28;19912;-70
2023/01/16 12:49:22;;;;;;;;;;;6.60;99.90;;;;;;5076409;28;20288;-70
2023/01/16 12:52:06;;;;;;;;;;;6.60;99.90;;;;;;5088284;28;19912;-70
2023/01/16 12:54:47;;;;;;;;;;;6.50;99.90;;;;;;5095236;28;19999;-67
2023/01/16 12:57:13;;;;;;;;;;;6.60;99.90;;;;;;5095376;28;19965;-67
2023/01/16 12:59:38;;;;;;;;;;;6.70;99.90;;;;;;5095349;28;19999;-69
2023/01/16 13:02:13;;;;;;;;;;;6.70;99.90;;;;;;5092658;28;19920;-66
2023/01/16 13:05:05;;;;;;;;;;;6.70;99.90;;;;;;5094222;28;19912;-72
2023/01/16 13:07:34;;;;;;;;;;;6.60;99.90;;;;;;5092955;28;19912;-67
2023/01/16 13:15:40;;;;;;;;;;;6.60;99.90;;;;;;5095643;28;19919;-71
2023/01/16 13:18:29;;;;;;;;;;;6.50;99.90;;;;;;5093881;28;19927;-68
2023/01/16 13:20:57;;;;;;;;;;;6.50;99.90;;;;;;5064424;28;19920;-71
2023/01/16 13:23:33;;;;;;;;;;;6.50;99.90;;;;;;5075778;28;19912;-73
2023/01/16 13:26:02;;;;;;;;;;;6.50;99.90;;;;;;5093357;28;19919;-68
2023/01/16 13:28:27;;;;;;;;;;;6.40;99.90;;;;;;5094334;28;20003;-67
2023/01/16 13:30:54;;;;;;;;;;;6.40;99.90;;;;;;5094555;28;19963;-68
2023/01/16 13:33:24;;;;;;;;;;;6.50;99.90;;;;;;5093155;28;19916;-74
2023/01/16 13:36:13;;;;;;;;;;;6.50;99.90;;;;;;5093588;28;19916;-73
2023/01/16 13:38:49;;;;;;;;;;;6.40;99.90;;;;;;5086793;28;19912;-74
2023/01/16 13:41:21;;;;;;;;;;;6.40;99.90;;;;;;5094862;28;19920;-67
2023/01/16 13:46:36;;;;;;;;;;;6.30;99.90;;;;;;5093417;28;19919;-72
2023/01/16 13:49:03;;;;;;;;;;;6.30;99.90;;;;;;5093782;28;19975;-72
2023/01/16 13:51:29;;;;;;;;;;;6.40;99.90;;;;;;5094092;28;19919;-67
2023/01/16 13:54:01;;;;;;;;;;;6.40;99.90;;;;;;5092921;28;19912;-70
2023/01/16 13:56:28;;;;;;;;;;;6.40;99.90;;;;;;5074889;28;20249;-71
2023/01/16 13:58:55;;;;;;;;;;;6.30;99.90;;;;;;5093050;28;19912;-68
2023/01/16 14:01:32;;;;;;;;;;;6.30;99.90;;;;;;5094854;28;20016;-71
2023/01/16 14:04:23;;;;;;;;;;;6.30;99.90;;;;;;5094353;28;19957;-69
2023/01/16 14:06:50;;;;;;;;;;;6.30;99.90;;;;;;5088836;28;20045;-71
2023/01/16 14:09:18;;;;;;;;;;;6.40;99.90;;;;;;5090521;28;19944;-68
2023/01/16 14:11:58;;;;;;;;;;;6.30;99.90;;;;;;5065098;28;19912;-71
2023/01/16 14:17:46;;;;;;;;;;;6.30;99.90;;;;;;5092811;28;19963;-71
2023/01/16 14:20:35;;;;;;;;;;;6.30;99.90;;;;;;5092690;28;19973;-71
2023/01/16 14:25:44;;;;;;;;;;;6.30;99.90;;;;;;5087271;28;19918;-72
2023/01/16 14:28:15;;;;;;;;;;;6.30;99.90;;;;;;5092342;28;19999;-71
2023/01/16 14:30:41;;;;;;;;;;;6.30;99.90;;;;;;5091971;28;19912;-72
2023/01/16 14:33:15;;;;;;;;;;;6.30;99.90;;;;;;5093543;28;19965;-72
2023/01/16 14:35:49;;;;;;;;;;;6.30;99.90;;;;;;5091584;28;19984;-68
2023/01/16 14:38:17;;;;;;;;;;;6.30;99.90;;;;;;5093774;28;19912;-72
2023/01/16 14:55:13;;;;;;;;;;;6.20;99.90;;;;;;5091001;28;19919;-67
2023/01/16 14:57:40;;;;;;;;;;;6.20;99.90;;;;;;5093906;28;19912;-65
2023/01/16 15:00:17;;;;;;;;;;;6.10;99.90;;;;;;5091547;28;19923;-70
2023/01/16 15:03:02;;;;;;;;;;;6.10;99.90;;;;;;5091900;28;19920;-69
2023/01/16 15:05:49;;;;;;;;;;;6.20;99.90;;;;;;5092453;28;19919;-66
2023/01/16 15:08:21;;;;;;;;;;;6.10;99.90;;;;;;5092341;28;19957;-65
2023/01/16 15:10:49;;;;;;;;;;;6.20;99.90;;;;;;5091748;28;20244;-66
2023/01/16 15:13:19;;;;;;;;;;;6.20;99.90;;;;;;5091733;28;19912;-67
2023/01/16 15:15:53;;;;;;;;;;;5.90;99.90;;;;;;5092393;28;19919;-66
2023/01/16 15:23:55;;;;;;;;;;;5.60;99.90;;;;;;5075678;28;19919;-66
2023/01/16 15:26:40;;;;;;;;;;;5.70;99.90;;;;;;5057441;28;19920;-69
2023/01/16 15:29:06;;;;;;;;;;;5.70;99.90;;;;;;5075328;28;19912;-69
2023/01/16 15:31:39;;;;;;;;;;;5.70;99.90;;;;;;5065546;28;19912;-68
2023/01/16 15:34:06;;;;;;;;;;;5.70;99.90;;;;;;5097938;28;19912;-68
2023/01/16 15:36:38;;;;;;;;;;;5.70;99.90;;;;;;5097311;28;20275;-67
2023/01/16 15:39:17;;;;;;;;;;;5.60;99.90;;;;;;5094851;28;20007;-67
2023/01/16 15:47:37;;;;;;;;;;;5.60;99.90;;;;;;5074968;28;20007;-67
2023/01/16 15:50:03;;;;;;;;;;;5.60;99.90;;;;;;5074875;28;20457;-67
2023/01/16 15:52:30;;;;;;;;;;;5.60;99.90;;;;;;5089626;28;19912;-70
2023/01/16 15:54:56;;;;;;;;;;;5.60;99.90;;;;;;5095137;28;19942;-67
2023/01/16 15:57:21;;;;;;;;;;;5.50;99.90;;;;;;5095302;28;19913;-68
2023/01/16 15:59:51;;;;;;;;;;;5.50;99.90;;;;;;5094773;28;19918;-67
2023/01/16 16:02:18;;;;;;;;;;;5.50;99.90;;;;;;5085163;28;19930;-67
2023/01/16 16:04:44;;;;;;;;;;;5.50;99.90;;;;;;5093693;28;20356;-66
2023/01/16 16:07:10;;;;;;;;;;;5.50;99.90;;;;;;5093762;28;19912;-67
2023/01/16 16:09:36;;;;;;;;;;;5.40;99.90;;;;;;5094636;28;19912;-68
2023/01/16 16:12:04;;;;;;;;;;;5.40;99.90;;;;;;5074785;28;19912;-69
2023/01/16 16:20:24;;;;;;;;;;;5.30;99.90;;;;;;5094619;28;19918;-70
2023/01/16 16:22:50;;;;;;;;;;;5.30;99.90;;;;;;5094701;28;19928;-67
2023/01/16 16:25:36;;;;;;;;;;;5.30;99.90;;;;;;5094905;28;19919;-67